sensor_id;sensor_type;location;lat;lon;timestamp;pressure;altitude;pressure_sealevel;temperature;humidity
66486;BME280;53303;47.476;8.084;2023-08-17T00:00:18;95452.97;;;24.84;56.92
66486;BME280;53303;47.476;8.084;2023-08-17T00:02:46;95450.72;;;24.82;56.68
66486;BME280;53303;47.476;8.084;2023-08-17T00:05:11;95452.75;;;24.82;56.81
66486;BME280;53303;47.476;8.084;2023-08-17T00:07:37;95443.19;;;24.77;56.86
66486;BME280;53303;47.476;8.084;2023-08-17T00:10:03;95454.81;;;24.81;56.72
66486;BME280;53303;47.476;8.084;2023-08-17T00:12:29;95449.00;;;24.79;56.95
66486;BME280;53303;47.476;8.084;2023-08-17T00:14:54;95452.00;;;24.81;56.77
66486;BME280;53303;47.476;8.084;2023-08-17T00:17:27;95447.91;;;24.82;56.63
66486;BME280;53303;47.476;8.084;2023-08-17T00:19:57;95452.00;;;24.81;56.29
66486;BME280;53303;47.476;8.084;2023-08-17T00:22:23;95448.47;;;24.81;56.79
66486;BME280;53303;47.476;8.084;2023-08-17T00:24:48;95447.84;;;24.75;56.69
66486;BME280;53303;47.476;8.084;2023-08-17T00:27:14;95456.81;;;24.81;56.71
66486;BME280;53303;47.476;8.084;2023-08-17T00:29:39;95457.59;;;24.81;56.74
66486;BME280;53303;47.476;8.084;2023-08-17T00:32:07;95454.81;;;24.81;56.77
66486;BME280;53303;47.476;8.084;2023-08-17T00:34:33;95455.34;;;24.80;56.46
66486;BME280;53303;47.476;8.084;2023-08-17T00:37:01;95455.53;;;24.82;56.58
66486;BME280;53303;47.476;8.084;2023-08-17T00:39:26;95446.97;;;24.80;56.44
66486;BME280;53303;47.476;8.084;2023-08-17T00:41:56;95452.56;;;24.80;56.86
66486;BME280;53303;47.476;8.084;2023-08-17T00:44:24;95449.75;;;24.80;56.83
66486;BME280;53303;47.476;8.084;2023-08-17T00:46:49;95450.50;;;24.80;56.77
66486;BME280;53303;47.476;8.084;2023-08-17T00:49:15;95439.25;;;24.73;56.81
66486;BME280;53303;47.476;8.084;2023-08-17T00:51:43;95451.25;;;24.81;56.58
66486;BME280;53303;47.476;8.084;2023-08-17T00:54:12;95451.25;;;24.81;56.54
66486;BME280;53303;47.476;8.084;2023-08-17T00:56:37;95450.50;;;24.80;56.82
66486;BME280;53303;47.476;8.084;2023-08-17T00:59:03;95451.78;;;24.79;56.67
66486;BME280;53303;47.476;8.084;2023-08-17T01:01:29;95456.09;;;24.80;56.60
66486;BME280;53303;47.476;8.084;2023-08-17T01:03:55;95458.88;;;24.80;56.56
66486;BME280;53303;47.476;8.084;2023-08-17T01:06:20;95431.53;;;24.65;56.80
66486;BME280;53303;47.476;8.084;2023-08-17T01:08:46;95461.66;;;24.80;56.53
66486;BME280;53303;47.476;8.084;2023-08-17T01:13:56;95465.00;;;24.79;56.90
66486;BME280;53303;47.476;8.084;2023-08-17T01:16:50;95444.38;;;24.68;56.93
66486;BME280;53303;47.476;8.084;2023-08-17T01:19:26;95453.41;;;24.75;56.32
66486;BME280;53303;47.476;8.084;2023-08-17T01:22:00;95443.31;;;24.72;56.83
66486;BME280;53303;47.476;8.084;2023-08-17T01:24:28;95445.25;;;24.77;56.67
66486;BME280;53303;47.476;8.084;2023-08-17T01:26:53;95442.47;;;24.77;56.90
66486;BME280;53303;47.476;8.084;2023-08-17T01:29:21;95446.00;;;24.77;56.99
66486;BME280;53303;47.476;8.084;2023-08-17T01:34:24;95443.97;;;24.78;56.52
66486;BME280;53303;47.476;8.084;2023-08-17T01:36:53;95443.97;;;24.78;56.73
66486;BME280;53303;47.476;8.084;2023-08-17T01:39:27;95439.66;;;24.77;56.67
66486;BME280;53303;47.476;8.084;2023-08-17T01:42:02;95436.88;;;24.77;56.56
66486;BME280;53303;47.476;8.084;2023-08-17T01:44:29;95427.00;;;24.76;56.49
66486;BME280;53303;47.476;8.084;2023-08-17T01:46:54;95434.09;;;24.77;56.44
66486;BME280;53303;47.476;8.084;2023-08-17T01:49:22;95434.28;;;24.79;56.49
66486;BME280;53303;47.476;8.084;2023-08-17T01:51:50;95434.09;;;24.77;56.66
66486;BME280;53303;47.476;8.084;2023-08-17T01:54:15;95441.19;;;24.78;56.91
66486;BME280;53303;47.476;8.084;2023-08-17T01:56:43;95436.78;;;24.69;56.88
66486;BME280;53303;47.476;8.084;2023-08-17T01:59:09;95450.81;;;24.77;56.66
66486;BME280;53303;47.476;8.084;2023-08-17T02:01:34;95448.78;;;24.77;56.86
66486;BME280;53303;47.476;8.084;2023-08-17T02:03:59;95435.91;;;24.74;56.46
66486;BME280;53303;47.476;8.084;2023-08-17T02:06:27;95437.75;;;24.72;56.46
66486;BME280;53303;47.476;8.084;2023-08-17T02:08:55;95449.56;;;24.78;56.53
66486;BME280;53303;47.476;8.084;2023-08-17T02:11:21;95443.19;;;24.77;56.58
66486;BME280;53303;47.476;8.084;2023-08-17T02:13:48;95435.91;;;24.74;56.85
66486;BME280;53303;47.476;8.084;2023-08-17T02:16:16;95415.97;;;24.70;56.57
66486;BME280;53303;47.476;8.084;2023-08-17T02:18:41;95438.16;;;24.76;56.97
66486;BME280;53303;47.476;8.084;2023-08-17T02:21:07;95432.16;;;24.72;56.47
66486;BME280;53303;47.476;8.084;2023-08-17T02:23:37;95435.38;;;24.76;56.63
66486;BME280;53303;47.476;8.084;2023-08-17T02:26:02;95428.50;;;24.77;56.53
66486;BME280;53303;47.476;8.084;2023-08-17T02:28:30;95418.22;;;24.72;56.88
66486;BME280;53303;47.476;8.084;2023-08-17T02:30:58;95420.66;;;24.75;56.78
66486;BME280;53303;47.476;8.084;2023-08-17T02:33:24;95427.00;;;24.76;56.85
66486;BME280;53303;47.476;8.084;2023-08-17T02:35:50;95428.50;;;24.77;56.68
66486;BME280;53303;47.476;8.084;2023-08-17T02:38:15;95424.19;;;24.76;56.50
66486;BME280;53303;47.476;8.084;2023-08-17T02:40:43;95418.41;;;24.74;56.77
66486;BME280;53303;47.476;8.084;2023-08-17T02:43:09;95409.63;;;24.69;56.82
66486;BME280;53303;47.476;8.084;2023-08-17T02:45:34;95422.19;;;24.76;56.78
66486;BME280;53303;47.476;8.084;2023-08-17T02:48:02;95417.88;;;24.75;56.75
66486;BME280;53303;47.476;8.084;2023-08-17T02:50:30;95419.94;;;24.75;56.79
66486;BME280;53303;47.476;8.084;2023-08-17T02:52:56;95411.03;;;24.76;56.57
66486;BME280;53303;47.476;8.084;2023-08-17T02:55:21;95412.31;;;24.75;56.47
66486;BME280;53303;47.476;8.084;2023-08-17T02:57:47;95406.84;;;24.69;57.02
66486;BME280;53303;47.476;8.084;2023-08-17T03:00:15;95407.06;;;24.72;56.49
66486;BME280;53303;47.476;8.084;2023-08-17T03:02:43;95388.38;;;24.66;56.50
66486;BME280;53303;47.476;8.084;2023-08-17T03:05:11;95395.69;;;24.69;56.52
66486;BME280;53303;47.476;8.084;2023-08-17T03:07:37;95392.69;;;24.67;56.77
66486;BME280;53303;47.476;8.084;2023-08-17T03:10:05;95407.06;;;24.72;56.60
66486;BME280;53303;47.476;8.084;2023-08-17T03:12:33;95411.88;;;24.71;56.62
66486;BME280;53303;47.476;8.084;2023-08-17T03:15:03;95401.06;;;24.67;56.24
66486;BME280;53303;47.476;8.084;2023-08-17T03:17:28;95403.06;;;24.67;56.69
66486;BME280;53303;47.476;8.084;2023-08-17T03:19:56;95397.81;;;24.63;56.33
66486;BME280;53303;47.476;8.084;2023-08-17T03:22:24;95403.06;;;24.67;56.65
66486;BME280;53303;47.476;8.084;2023-08-17T03:24:50;95408.13;;;24.68;56.64
66486;BME280;53303;47.476;8.084;2023-08-17T03:27:18;95413.38;;;24.72;56.42
66486;BME280;53303;47.476;8.084;2023-08-17T03:29:46;95408.31;;;24.70;56.50
66486;BME280;53303;47.476;8.084;2023-08-17T03:32:12;95412.63;;;24.72;56.59
66486;BME280;53303;47.476;8.084;2023-08-17T03:34:37;95404.38;;;24.66;56.23
66486;BME280;53303;47.476;8.084;2023-08-17T03:37:05;95411.34;;;24.73;56.31
66486;BME280;53303;47.476;8.084;2023-08-17T03:39:33;95412.84;;;24.74;56.24
66486;BME280;53303;47.476;8.084;2023-08-17T03:41:58;95408.56;;;24.73;56.39
66486;BME280;53303;47.476;8.084;2023-08-17T03:44:24;95406.44;;;24.65;56.32
66486;BME280;53303;47.476;8.084;2023-08-17T03:46:49;95407.50;;;24.62;56.30
66486;BME280;53303;47.476;8.084;2023-08-17T03:49:22;95393.34;;;24.60;56.03
66486;BME280;53303;47.476;8.084;2023-08-17T03:51:52;95412.00;;;24.65;56.39
66486;BME280;53303;47.476;8.084;2023-08-17T03:54:17;95405.88;;;24.67;56.28
66486;BME280;53303;47.476;8.084;2023-08-17T03:56:43;95411.34;;;24.73;56.25
66486;BME280;53303;47.476;8.084;2023-08-17T03:59:11;95408.13;;;24.68;56.45
66486;BME280;53303;47.476;8.084;2023-08-17T04:01:36;95414.69;;;24.71;56.22
66486;BME280;53303;47.476;8.084;2023-08-17T04:04:02;95393.47;;;24.55;56.75
66486;BME280;53303;47.476;8.084;2023-08-17T04:06:29;95421.22;;;24.74;56.68
66486;BME280;53303;47.476;8.084;2023-08-17T04:08:58;95416.69;;;24.70;56.60
66486;BME280;53303;47.476;8.084;2023-08-17T04:11:26;95417.88;;;24.75;56.86
66486;BME280;53303;47.476;8.084;2023-08-17T04:13:51;95410.16;;;24.68;56.49
66486;BME280;53303;47.476;8.084;2023-08-17T04:16:19;95412.97;;;24.68;56.21
66486;BME280;53303;47.476;8.084;2023-08-17T04:18:47;95426.16;;;24.67;55.77
66486;BME280;53303;47.476;8.084;2023-08-17T04:21:15;95426.59;;;24.72;55.82
66486;BME280;53303;47.476;8.084;2023-08-17T04:23:43;95423.06;;;24.71;55.48
66486;BME280;53303;47.476;8.084;2023-08-17T04:26:10;95415.34;;;24.64;55.32
66486;BME280;53303;47.476;8.084;2023-08-17T04:28:36;95426.16;;;24.67;55.21
66486;BME280;53303;47.476;8.084;2023-08-17T04:31:03;95417.16;;;24.61;55.30
66486;BME280;53303;47.476;8.084;2023-08-17T04:33:29;95424.97;;;24.63;55.12
66486;BME280;53303;47.476;8.084;2023-08-17T04:35:59;95422.72;;;24.61;55.10
66486;BME280;53303;47.476;8.084;2023-08-17T04:38:29;95427.44;;;24.66;54.97
66486;BME280;53303;47.476;8.084;2023-08-17T04:40:54;95429.59;;;24.60;55.14
66486;BME280;53303;47.476;8.084;2023-08-17T04:43:22;95430.78;;;24.65;54.98
66486;BME280;53303;47.476;8.084;2023-08-17T04:45:47;95436.69;;;24.61;54.92
66486;BME280;53303;47.476;8.084;2023-08-17T04:48:13;95424.34;;;24.57;55.11
66486;BME280;53303;47.476;8.084;2023-08-17T04:50:39;95423.59;;;24.56;55.05
66486;BME280;53303;47.476;8.084;2023-08-17T04:53:04;95429.16;;;24.56;54.87
66486;BME280;53303;47.476;8.084;2023-08-17T04:55:37;95431.63;;;24.60;54.68
66486;BME280;53303;47.476;8.084;2023-08-17T04:58:03;95432.94;;;24.59;54.64
66486;BME280;53303;47.476;8.084;2023-08-17T05:00:28;95421.41;;;24.49;54.97
66486;BME280;53303;47.476;8.084;2023-08-17T05:02:54;95433.06;;;24.53;55.24
66486;BME280;53303;47.476;8.084;2023-08-17T05:05:20;95427.25;;;24.51;54.95
66486;BME280;53303;47.476;8.084;2023-08-17T05:07:47;95415.00;;;24.41;55.09
66486;BME280;53303;47.476;8.084;2023-08-17T05:10:15;95425.41;;;24.40;54.90
66486;BME280;53303;47.476;8.084;2023-08-17T05:12:40;95417.13;;;24.35;55.19
66486;BME280;53303;47.476;8.084;2023-08-17T05:15:06;95431.94;;;24.43;55.35
66486;BME280;53303;47.476;8.084;2023-08-17T05:17:32;95423.16;;;24.39;55.46
66486;BME280;53303;47.476;8.084;2023-08-17T05:19:57;95428.19;;;24.40;55.38
66486;BME280;53303;47.476;8.084;2023-08-17T05:22:25;95417.13;;;24.35;55.50
66486;BME280;53303;47.476;8.084;2023-08-17T05:24:51;95422.72;;;24.35;55.44
66486;BME280;53303;47.476;8.084;2023-08-17T05:27:21;95422.50;;;24.32;55.54
66486;BME280;53303;47.476;8.084;2023-08-17T05:29:46;95436.88;;;24.37;55.12
66486;BME280;53303;47.476;8.084;2023-08-17T05:32:12;95425.63;;;24.29;55.53
66486;BME280;53303;47.476;8.084;2023-08-17T05:34:37;95435.19;;;24.33;55.09
66486;BME280;53303;47.476;8.084;2023-08-17T05:37:02;95426.16;;;24.27;55.68
66486;BME280;53303;47.476;8.084;2023-08-17T05:39:30;95418.97;;;24.19;55.93
66486;BME280;53303;47.476;8.084;2023-08-17T05:41:56;95428.00;;;24.25;56.22
66486;BME280;53303;47.476;8.084;2023-08-17T05:44:21;95441.59;;;24.28;56.63
66486;BME280;53303;47.476;8.084;2023-08-17T05:46:49;95438.16;;;24.22;56.98
66486;BME280;53303;47.476;8.084;2023-08-17T05:49:17;95455.75;;;24.30;57.33
66486;BME280;53303;47.476;8.084;2023-08-17T05:51:45;95419.91;;;24.08;57.15
66486;BME280;53303;47.476;8.084;2023-08-17T05:54:11;95470.97;;;24.29;57.65
66486;BME280;53303;47.476;8.084;2023-08-17T05:56:44;95458.44;;;24.23;57.34
66486;BME280;53303;47.476;8.084;2023-08-17T05:59:13;95453.28;;;24.27;57.82
66486;BME280;53303;47.476;8.084;2023-08-17T06:01:41;95461.97;;;24.23;57.85
66486;BME280;53303;47.476;8.084;2023-08-17T06:04:07;95462.50;;;24.22;57.99
66486;BME280;53303;47.476;8.084;2023-08-17T06:06:32;95460.03;;;24.18;57.70
66486;BME280;53303;47.476;8.084;2023-08-17T06:09:00;95466.28;;;24.24;57.97
66486;BME280;53303;47.476;8.084;2023-08-17T06:11:25;95472.16;;;24.21;57.78
66486;BME280;53303;47.476;8.084;2023-08-17T06:13:51;95466.34;;;24.19;58.10
66486;BME280;53303;47.476;8.084;2023-08-17T06:16:19;95479.03;;;24.20;58.11
66486;BME280;53303;47.476;8.084;2023-08-17T06:18:46;95481.28;;;24.21;57.99
66486;BME280;53303;47.476;8.084;2023-08-17T06:21:11;95477.09;;;24.14;58.08
66486;BME280;53303;47.476;8.084;2023-08-17T06:23:37;95465.50;;;24.10;58.35
66486;BME280;53303;47.476;8.084;2023-08-17T06:26:03;95459.16;;;24.10;58.64
66486;BME280;53303;47.476;8.084;2023-08-17T06:28:31;95478.50;;;24.21;58.44
66486;BME280;53303;47.476;8.084;2023-08-17T06:31:02;95479.97;;;24.22;58.80
66486;BME280;53303;47.476;8.084;2023-08-17T06:33:27;95474.72;;;24.19;58.86
66486;BME280;53303;47.476;8.084;2023-08-17T06:35:52;95475.81;;;24.16;58.91
66486;BME280;53303;47.476;8.084;2023-08-17T06:38:20;95486.84;;;24.21;59.03
66486;BME280;53303;47.476;8.084;2023-08-17T06:40:48;95462.81;;;24.18;58.99
66486;BME280;53303;47.476;8.084;2023-08-17T06:43:13;95481.50;;;24.23;58.96
66486;BME280;53303;47.476;8.084;2023-08-17T06:45:41;95479.13;;;24.14;59.17
66486;BME280;53303;47.476;8.084;2023-08-17T06:48:09;95483.09;;;24.19;59.32
66486;BME280;53303;47.476;8.084;2023-08-17T06:50:37;95495.44;;;24.23;59.38
66486;BME280;53303;47.476;8.084;2023-08-17T06:53:05;95503.59;;;24.21;59.45
66486;BME280;53303;47.476;8.084;2023-08-17T06:55:30;95495.00;;;24.19;59.51
66486;BME280;53303;47.476;8.084;2023-08-17T06:57:56;95503.78;;;24.23;59.60
66486;BME280;53303;47.476;8.084;2023-08-17T07:00:22;95489.75;;;24.16;59.75
66486;BME280;53303;47.476;8.084;2023-08-17T07:02:48;95490.06;;;24.12;59.52
66486;BME280;53303;47.476;8.084;2023-08-17T07:05:14;95502.28;;;24.22;59.80
66486;BME280;53303;47.476;8.084;2023-08-17T07:07:42;95498.31;;;24.18;59.92
66486;BME280;53303;47.476;8.084;2023-08-17T07:10:10;95499.06;;;24.18;60.12
66486;BME280;53303;47.476;8.084;2023-08-17T07:12:39;95496.06;;;24.16;60.27
66486;BME280;53303;47.476;8.084;2023-08-17T07:15:05;95504.31;;;24.22;60.39
66486;BME280;53303;47.476;8.084;2023-08-17T07:17:33;95503.06;;;24.23;60.63
66486;BME280;53303;47.476;8.084;2023-08-17T07:19:59;95510.13;;;24.24;60.31
66486;BME280;53303;47.476;8.084;2023-08-17T07:22:27;95503.78;;;24.23;60.58
66486;BME280;53303;47.476;8.084;2023-08-17T07:24:55;95480.41;;;24.13;60.83
66486;BME280;53303;47.476;8.084;2023-08-17T07:27:23;95494.47;;;24.21;60.62
66486;BME280;53303;47.476;8.084;2023-08-17T07:29:53;95499.94;;;24.26;60.96
66486;BME280;53303;47.476;8.084;2023-08-17T07:32:21;95494.91;;;24.25;61.16
66486;BME280;53303;47.476;8.084;2023-08-17T07:34:49;95494.69;;;24.23;60.75
66486;BME280;53303;47.476;8.084;2023-08-17T07:37:14;95499.41;;;24.28;60.92
66486;BME280;53303;47.476;8.084;2023-08-17T07:39:42;95499.19;;;24.26;60.97
66486;BME280;53303;47.476;8.084;2023-08-17T07:42:10;95498.44;;;24.25;60.81
66486;BME280;53303;47.476;8.084;2023-08-17T07:44:35;95497.03;;;24.19;60.82
66486;BME280;53303;47.476;8.084;2023-08-17T07:47:04;95503.59;;;24.21;61.00
66486;BME280;53303;47.476;8.084;2023-08-17T07:49:30;95514.31;;;24.30;61.13
66486;BME280;53303;47.476;8.084;2023-08-17T07:51:55;95510.44;;;24.20;61.08
66486;BME280;53303;47.476;8.084;2023-08-17T07:54:25;95524.19;;;24.31;60.87
66486;BME280;53303;47.476;8.084;2023-08-17T07:56:50;95510.97;;;24.19;60.98
66486;BME280;53303;47.476;8.084;2023-08-17T07:59:18;95524.28;;;24.26;60.78
66486;BME280;53303;47.476;8.084;2023-08-17T08:01:44;95518.78;;;24.20;61.17
66486;BME280;53303;47.476;8.084;2023-08-17T08:04:12;95526.84;;;24.24;60.93
66486;BME280;53303;47.476;8.084;2023-08-17T08:06:37;95541.66;;;24.32;60.96
66486;BME280;53303;47.476;8.084;2023-08-17T08:09:07;95539.09;;;24.34;61.13
66486;BME280;53303;47.476;8.084;2023-08-17T08:11:33;95535.56;;;24.33;61.01
66486;BME280;53303;47.476;8.084;2023-08-17T08:13:58;95528.56;;;24.27;61.08
66486;BME280;53303;47.476;8.084;2023-08-17T08:16:26;95536.84;;;24.32;61.04
66486;BME280;53303;47.476;8.084;2023-08-17T08:18:52;95543.63;;;24.37;61.42
66486;BME280;53303;47.476;8.084;2023-08-17T08:21:19;95540.28;;;24.39;61.44
66486;BME280;53303;47.476;8.084;2023-08-17T08:23:45;95543.81;;;24.39;61.69
66486;BME280;53303;47.476;8.084;2023-08-17T08:26:12;95542.53;;;24.40;61.92
66486;BME280;53303;47.476;8.084;2023-08-17T08:28:40;95525.91;;;24.35;61.71
66486;BME280;53303;47.476;8.084;2023-08-17T08:31:05;95531.16;;;24.38;61.79
66486;BME280;53303;47.476;8.084;2023-08-17T08:33:33;95548.88;;;24.41;61.57
66486;BME280;53303;47.476;8.084;2023-08-17T08:35:59;95540.28;;;24.39;61.33
66486;BME280;53303;47.476;8.084;2023-08-17T08:38:27;95542.84;;;24.37;61.17
66486;BME280;53303;47.476;8.084;2023-08-17T08:40:52;95542.84;;;24.37;61.49
66486;BME280;53303;47.476;8.084;2023-08-17T08:43:18;95545.09;;;24.38;61.41
66486;BME280;53303;47.476;8.084;2023-08-17T08:45:45;95537.06;;;24.35;61.38
66486;BME280;53303;47.476;8.084;2023-08-17T08:48:13;95548.09;;;24.40;61.12
66486;BME280;53303;47.476;8.084;2023-08-17T08:50:43;95553.16;;;24.42;61.12
66486;BME280;53303;47.476;8.084;2023-08-17T08:53:17;95553.16;;;24.42;61.42
66486;BME280;53303;47.476;8.084;2023-08-17T08:55:57;95549.50;;;24.33;61.16
66486;BME280;53303;47.476;8.084;2023-08-17T08:58:26;95543.72;;;24.31;61.31
66486;BME280;53303;47.476;8.084;2023-08-17T09:00:52;95555.19;;;24.41;61.52
66486;BME280;53303;47.476;8.084;2023-08-17T09:03:22;95561.75;;;24.44;61.35
66486;BME280;53303;47.476;8.084;2023-08-17T09:05:51;95563.78;;;24.43;61.43
66486;BME280;53303;47.476;8.084;2023-08-17T09:08:30;95562.28;;;24.42;60.85
66486;BME280;53303;47.476;8.084;2023-08-17T09:10:56;95564.53;;;24.44;60.65
66486;BME280;53303;47.476;8.084;2023-08-17T09:13:22;95547.16;;;24.38;60.90
66486;BME280;53303;47.476;8.084;2023-08-17T09:15:47;95536.41;;;24.28;60.66
66486;BME280;53303;47.476;8.084;2023-08-17T09:18:13;95548.34;;;24.42;60.81
66486;BME280;53303;47.476;8.084;2023-08-17T09:20:46;95557.44;;;24.43;60.54
66486;BME280;53303;47.476;8.084;2023-08-17T09:25:42;95552.19;;;24.39;60.52
66486;BME280;53303;47.476;8.084;2023-08-17T09:28:13;95558.72;;;24.42;60.80
66486;BME280;53303;47.476;8.084;2023-08-17T09:30:59;95554.75;;;24.37;61.06
66486;BME280;53303;47.476;8.084;2023-08-17T09:33:27;95556.47;;;24.40;60.95
66486;BME280;53303;47.476;8.084;2023-08-17T09:35:55;95550.34;;;24.42;60.91
66486;BME280;53303;47.476;8.084;2023-08-17T09:38:24;95548.66;;;24.39;60.66
66486;BME280;53303;47.476;8.084;2023-08-17T09:40:49;95554.66;;;24.43;60.68
66486;BME280;53303;47.476;8.084;2023-08-17T09:43:16;95558.88;;;24.49;60.68
66486;BME280;53303;47.476;8.084;2023-08-17T09:45:45;95561.66;;;24.49;60.37
66486;BME280;53303;47.476;8.084;2023-08-17T09:48:15;95549.84;;;24.43;60.66
66486;BME280;53303;47.476;8.084;2023-08-17T09:50:42;95555.31;;;24.49;60.51
66486;BME280;53303;47.476;8.084;2023-08-17T09:53:12;95556.06;;;24.49;60.28
66486;BME280;53303;47.476;8.084;2023-08-17T09:55:41;95542.75;;;24.42;60.05
66486;BME280;53303;47.476;8.084;2023-08-17T09:58:09;95551.25;;;24.50;60.26
66486;BME280;53303;47.476;8.084;2023-08-17T10:00:45;95539.75;;;24.40;60.39
66486;BME280;53303;47.476;8.084;2023-08-17T10:03:13;95551.97;;;24.50;60.22
66486;BME280;53303;47.476;8.084;2023-08-17T10:05:45;95545.66;;;24.50;60.68
66486;BME280;53303;47.476;8.084;2023-08-17T10:08:19;95543.94;;;24.47;60.36
66486;BME280;53303;47.476;8.084;2023-08-17T10:10:46;95547.19;;;24.51;60.55
66486;BME280;53303;47.476;8.084;2023-08-17T10:13:35;95538.34;;;24.47;60.34
66486;BME280;53303;47.476;8.084;2023-08-17T10:18:54;95538.81;;;24.51;60.43
66486;BME280;53303;47.476;8.084;2023-08-17T10:21:28;95524.63;;;24.49;60.32
66486;BME280;53303;47.476;8.084;2023-08-17T10:23:59;95535.78;;;24.49;60.06
66486;BME280;53303;47.476;8.084;2023-08-17T10:26:24;95531.50;;;24.48;60.37
66486;BME280;53303;47.476;8.084;2023-08-17T10:28:51;95537.75;;;24.54;60.19
66486;BME280;53303;47.476;8.084;2023-08-17T10:31:17;95525.59;;;24.51;60.30
66486;BME280;53303;47.476;8.084;2023-08-17T10:33:44;95524.56;;;24.55;60.27
66486;BME280;53303;47.476;8.084;2023-08-17T10:36:15;95511.44;;;24.49;60.01
66486;BME280;53303;47.476;8.084;2023-08-17T10:38:43;95518.22;;;24.54;60.10
66486;BME280;53303;47.476;8.084;2023-08-17T10:41:12;95523.25;;;24.56;60.12
66486;BME280;53303;47.476;8.084;2023-08-17T10:43:52;95516.91;;;24.42;60.24
66486;BME280;53303;47.476;8.084;2023-08-17T10:46:21;95499.63;;;24.43;60.43
66486;BME280;53303;47.476;8.084;2023-08-17T10:48:51;95507.84;;;24.55;59.65
66486;BME280;53303;47.476;8.084;2023-08-17T10:51:23;95500.28;;;24.49;59.90
66486;BME280;53303;47.476;8.084;2023-08-17T10:53:52;95501.03;;;24.50;60.12
66486;BME280;53303;47.476;8.084;2023-08-17T10:56:20;95494.94;;;24.51;59.90
66486;BME280;53303;47.476;8.084;2023-08-17T10:58:45;95493.13;;;24.54;60.22
66486;BME280;53303;47.476;8.084;2023-08-17T11:01:10;95480.97;;;24.51;60.02
66486;BME280;53303;47.476;8.084;2023-08-17T11:03:38;95490.53;;;24.56;59.67
66486;BME280;53303;47.476;8.084;2023-08-17T11:06:24;95484.75;;;24.54;59.53
66486;BME280;53303;47.476;8.084;2023-08-17T11:08:58;95472.84;;;24.54;59.91
66486;BME280;53303;47.476;8.084;2023-08-17T11:11:26;95470.56;;;24.52;59.79
66486;BME280;53303;47.476;8.084;2023-08-17T11:13:59;95470.06;;;24.54;59.54
66486;BME280;53303;47.476;8.084;2023-08-17T11:16:24;95474.34;;;24.55;59.67
66486;BME280;53303;47.476;8.084;2023-08-17T11:18:50;95472.53;;;24.57;59.56
66486;BME280;53303;47.476;8.084;2023-08-17T11:21:16;95479.06;;;24.60;59.58
66486;BME280;53303;47.476;8.084;2023-08-17T11:23:42;95475.00;;;24.61;59.27
66486;BME280;53303;47.476;8.084;2023-08-17T11:26:08;95464.56;;;24.61;59.66
66486;BME280;53303;47.476;8.084;2023-08-17T11:28:34;95452.47;;;24.59;59.28
66486;BME280;53303;47.476;8.084;2023-08-17T11:31:06;95448.69;;;24.56;59.16
66486;BME280;53303;47.476;8.084;2023-08-17T11:33:32;95437.84;;;24.52;59.41
66486;BME280;53303;47.476;8.084;2023-08-17T11:36:00;95451.06;;;24.65;59.25
66486;BME280;53303;47.476;8.084;2023-08-17T11:40:58;95434.09;;;24.63;58.95
66486;BME280;53303;47.476;8.084;2023-08-17T11:43:25;95437.22;;;24.60;59.27
66486;BME280;53303;47.476;8.084;2023-08-17T11:45:51;95441.19;;;24.64;59.01
66486;BME280;53303;47.476;8.084;2023-08-17T11:48:20;95434.09;;;24.63;59.02
66486;BME280;53303;47.476;8.084;2023-08-17T11:50:46;95435.41;;;24.62;59.27
66486;BME280;53303;47.476;8.084;2023-08-17T11:53:11;95431.75;;;24.67;59.16
66486;BME280;53303;47.476;8.084;2023-08-17T11:55:37;95431.75;;;24.67;59.25
66486;BME280;53303;47.476;8.084;2023-08-17T11:58:04;95425.50;;;24.61;58.92
66486;BME280;53303;47.476;8.084;2023-08-17T12:00:35;95429.50;;;24.66;58.98
66486;BME280;53303;47.476;8.084;2023-08-17T12:03:04;95424.25;;;24.62;59.16
66486;BME280;53303;47.476;8.084;2023-08-17T12:05:33;95437.13;;;24.65;58.91
66486;BME280;53303;47.476;8.084;2023-08-17T12:08:01;95426.06;;;24.60;58.96
66486;BME280;53303;47.476;8.084;2023-08-17T12:10:31;95433.44;;;24.70;59.27
66486;BME280;53303;47.476;8.084;2023-08-17T12:13:01;95422.06;;;24.68;58.93
66486;BME280;53303;47.476;8.084;2023-08-17T12:15:36;95424.31;;;24.70;59.04
66486;BME280;53303;47.476;8.084;2023-08-17T12:18:04;95422.84;;;24.69;59.31
66486;BME280;53303;47.476;8.084;2023-08-17T12:20:33;95418.00;;;24.56;59.50
66486;BME280;53303;47.476;8.084;2023-08-17T12:23:05;95406.75;;;24.62;59.38
66486;BME280;53303;47.476;8.084;2023-08-17T12:25:33;95412.00;;;24.65;59.00
66486;BME280;53303;47.476;8.084;2023-08-17T12:28:04;95406.44;;;24.65;59.07
66486;BME280;53303;47.476;8.084;2023-08-17T12:30:31;95408.25;;;24.63;59.28
66486;BME280;53303;47.476;8.084;2023-08-17T12:33:00;95426.59;;;24.72;59.12
66486;BME280;53303;47.476;8.084;2023-08-17T12:35:25;95430.88;;;24.73;59.34
66486;BME280;53303;47.476;8.084;2023-08-17T12:37:55;95418.94;;;24.72;59.12
66486;BME280;53303;47.476;8.084;2023-08-17T12:40:23;95421.56;;;24.57;59.61
66486;BME280;53303;47.476;8.084;2023-08-17T12:42:48;95413.81;;;24.63;59.13
66486;BME280;53303;47.476;8.084;2023-08-17T12:45:16;95419.41;;;24.63;59.19
66486;BME280;53303;47.476;8.084;2023-08-17T12:47:45;95414.47;;;24.69;59.25
66486;BME280;53303;47.476;8.084;2023-08-17T12:50:10;95404.19;;;24.64;59.03
66486;BME280;53303;47.476;8.084;2023-08-17T12:52:38;95416.28;;;24.66;59.14
66486;BME280;53303;47.476;8.084;2023-08-17T12:55:04;95412.75;;;24.66;59.18
66486;BME280;53303;47.476;8.084;2023-08-17T12:57:32;95421.75;;;24.72;58.99
66486;BME280;53303;47.476;8.084;2023-08-17T12:59:57;95419.50;;;24.70;58.96
66486;BME280;53303;47.476;8.084;2023-08-17T13:02:25;95414.03;;;24.65;59.18
66486;BME280;53303;47.476;8.084;2023-08-17T13:04:53;95429.38;;;24.72;58.97
66486;BME280;53303;47.476;8.084;2023-08-17T13:07:18;95408.91;;;24.56;59.17
66486;BME280;53303;47.476;8.084;2023-08-17T13:09:44;95435.69;;;24.72;59.08
66486;BME280;53303;47.476;8.084;2023-08-17T13:12:12;95433.69;;;24.73;59.08
66486;BME280;53303;47.476;8.084;2023-08-17T13:14:37;95430.44;;;24.68;59.04